createdAt,value
2017-10-17T00:00:33.487Z,454.57
2017-10-17T00:03:01.917Z,545.80
2017-10-17T00:05:30.527Z,459.57
2017-10-17T00:07:58.957Z,520.17
2017-10-17T00:10:27.414Z,283.47
2017-10-17T00:12:56.497Z,297.27
2017-10-17T00:15:24.931Z,203.37
2017-10-17T00:17:53.356Z,169.90
2017-10-17T00:20:21.983Z,178.43
2017-10-17T00:22:50.432Z,428.73
2017-10-17T00:25:18.918Z,284.47
2017-10-17T00:27:47.404Z,414.83
2017-10-17T00:30:31.461Z,533.03
2017-10-17T00:33:02.679Z,237.67
2017-10-17T00:35:48.962Z,245.20
2017-10-17T00:38:19.088Z,296.90
2017-10-17T00:40:47.616Z,613.37
2017-10-17T00:43:16.724Z,240.97
2017-10-17T00:45:45.293Z,214.17
2017-10-17T00:48:30.251Z,186.87
2017-10-17T00:50:59.494Z,162.67
2017-10-17T00:53:27.939Z,326.23
2017-10-17T00:55:56.438Z,130.43
2017-10-17T00:58:30.548Z,126.87
2017-10-17T01:00:59.013Z,152.47
2017-10-17T01:03:27.393Z,602.20
2017-10-17T01:05:56.783Z,202.00
2017-10-17T01:08:25.255Z,338.73
2017-10-17T01:10:54.432Z,271.53
2017-10-17T01:13:23.064Z,145.97
2017-10-17T01:15:51.483Z,612.97
2017-10-17T01:18:19.957Z,532.47
2017-10-17T01:20:49.407Z,322.43
2017-10-17T01:26:21.562Z,301.70
2017-10-17T01:29:03.941Z,712.63
2017-10-17T01:31:32.512Z,560.73
2017-10-17T01:34:00.915Z,668.40
2017-10-17T01:36:29.325Z,792.13
2017-10-17T01:39:01.003Z,439.53
2017-10-17T01:41:30.265Z,513.23
2017-10-17T01:47:08.857Z,603.07
2017-10-17T01:49:53.308Z,267.37
2017-10-17T01:52:24.676Z,337.60
2017-10-17T01:55:05.134Z,330.23
2017-10-17T01:57:39.112Z,431.50
2017-10-17T02:00:07.610Z,260.50
2017-10-17T02:02:39.849Z,287.13
2017-10-17T02:05:08.316Z,242.57
2017-10-17T02:07:36.765Z,518.17
2017-10-17T02:10:11.433Z,457.40
2017-10-17T02:12:39.928Z,295.43
2017-10-17T02:15:08.489Z,472.23
2017-10-17T02:17:37.092Z,547.53
2017-10-17T02:20:06.389Z,373.63
2017-10-17T02:22:37.463Z,355.83
2017-10-17T02:25:27.535Z,411.63
2017-10-17T02:28:08.229Z,285.87
2017-10-17T02:30:39.834Z,436.73
2017-10-17T02:33:08.599Z,397.27
2017-10-17T02:35:37.085Z,393.50
2017-10-17T02:38:07.836Z,499.23
2017-10-17T02:40:36.240Z,474.57
2017-10-17T02:43:07.512Z,467.23
2017-10-17T02:45:36.083Z,294.53
2017-10-17T02:48:07.327Z,411.13
2017-10-17T02:50:35.729Z,342.73
2017-10-17T02:53:04.539Z,407.00
2017-10-17T02:55:32.963Z,282.83
2017-10-17T02:58:01.729Z,457.07
2017-10-17T03:00:30.291Z,388.23
2017-10-17T03:02:58.754Z,529.93
2017-10-17T03:05:34.251Z,337.20
2017-10-17T03:08:07.386Z,551.67
2017-10-17T03:10:35.962Z,531.03
2017-10-17T03:13:05.136Z,401.57
2017-10-17T03:15:47.525Z,479.67
2017-10-17T03:18:15.986Z,576.30
2017-10-17T03:20:44.466Z,661.10
2017-10-17T03:23:22.821Z,580.63
2017-10-17T03:25:51.252Z,304.93
2017-10-17T03:28:19.671Z,539.00
2017-10-17T03:30:50.377Z,546.47
2017-10-17T03:33:22.350Z,321.57
2017-10-17T03:35:50.754Z,535.53
2017-10-17T03:38:45.019Z,457.40
2017-10-17T03:41:22.265Z,271.00
2017-10-17T03:43:53.476Z,589.33
2017-10-17T03:49:37.331Z,623.93
2017-10-17T03:52:07.424Z,503.53
2017-10-17T03:54:35.850Z,528.70
2017-10-17T03:57:07.072Z,377.80
2017-10-17T03:59:38.191Z,481.20
2017-10-17T04:02:06.594Z,757.13
2017-10-17T04:04:45.781Z,489.93
2017-10-17T04:07:14.958Z,283.87
2017-10-17T04:09:44.242Z,324.00
2017-10-17T04:12:12.812Z,625.10
2017-10-17T04:14:45.688Z,441.37
2017-10-17T04:17:43.099Z,427.90
2017-10-17T04:20:15.258Z,755.93
2017-10-17T04:22:45.453Z,518.57
2017-10-17T04:25:19.296Z,436.00
2017-10-17T04:27:56.437Z,376.30
2017-10-17T04:30:33.678Z,414.97
2017-10-17T04:33:09.582Z,500.43
2017-10-17T04:35:37.990Z,313.47
2017-10-17T04:38:06.442Z,244.53
2017-10-17T04:40:34.964Z,668.47
2017-10-17T04:46:11.721Z,363.17
2017-10-17T04:51:55.813Z,331.77
2017-10-17T04:54:27.124Z,190.87
2017-10-17T04:57:02.500Z,320.37
2017-10-17T04:59:48.566Z,323.07
2017-10-17T05:02:27.576Z,515.57
2017-10-17T05:05:02.571Z,522.13
2017-10-17T05:07:35.844Z,254.00
2017-10-17T05:10:09.969Z,348.30
2017-10-17T05:12:40.468Z,262.87
2017-10-17T05:15:09.778Z,191.50
2017-10-17T05:17:55.332Z,358.53
2017-10-17T05:20:26.445Z,294.40
2017-10-17T05:22:57.579Z,164.20
2017-10-17T05:25:31.565Z,210.30
2017-10-17T05:28:10.885Z,160.00
2017-10-17T05:33:58.303Z,340.90
2017-10-17T05:36:45.170Z,403.70
2017-10-17T05:39:13.636Z,603.93
2017-10-17T05:41:42.085Z,295.93
2017-10-17T05:44:12.013Z,473.37
2017-10-17T05:46:48.419Z,381.33
2017-10-17T05:49:19.592Z,326.47
2017-10-17T05:51:48.781Z,599.63
2017-10-17T05:54:17.261Z,179.33
2017-10-17T05:56:45.661Z,168.37
2017-10-17T05:59:14.840Z,280.57
2017-10-17T06:01:44.209Z,300.10
2017-10-17T06:04:12.622Z,416.53
2017-10-17T06:06:41.331Z,362.33
2017-10-17T06:09:10.488Z,227.50
2017-10-17T06:11:38.889Z,224.27
2017-10-17T06:14:07.296Z,300.23
2017-10-17T06:16:36.740Z,189.53
2017-10-17T06:19:05.521Z,222.43
2017-10-17T06:21:33.913Z,489.17
2017-10-17T06:24:02.340Z,385.60
2017-10-17T06:26:31.480Z,286.33
2017-10-17T06:28:59.870Z,115.50
2017-10-17T06:31:28.335Z,377.43
2017-10-17T06:33:56.708Z,323.37
2017-10-17T06:36:25.097Z,432.40
2017-10-17T06:38:53.587Z,276.10
2017-10-17T06:41:21.969Z,178.77
2017-10-17T06:43:50.428Z,422.63
2017-10-17T06:46:18.899Z,301.90
2017-10-17T06:48:47.285Z,640.83
2017-10-17T06:51:15.710Z,479.30
2017-10-17T06:53:45.065Z,242.23
2017-10-17T06:56:13.472Z,188.07
2017-10-17T06:58:41.884Z,375.60
2017-10-17T07:01:11.316Z,291.00
2017-10-17T07:03:39.724Z,185.73
2017-10-17T07:06:08.108Z,341.17
2017-10-17T07:08:36.906Z,432.70
2017-10-17T07:11:05.299Z,213.60
2017-10-17T07:13:33.732Z,472.20
2017-10-17T07:16:02.364Z,360.73
2017-10-17T07:18:31.499Z,233.33
2017-10-17T07:21:00.636Z,474.27
2017-10-17T07:23:29.443Z,204.77
2017-10-17T07:25:57.878Z,613.37
2017-10-17T07:28:26.423Z,306.93
2017-10-17T07:30:55.669Z,287.87
2017-10-17T07:33:24.131Z,158.33
2017-10-17T07:35:52.550Z,333.97
2017-10-17T07:38:21.076Z,318.47
2017-10-17T07:40:49.520Z,136.50
2017-10-17T07:43:18.016Z,97.40
2017-10-17T07:45:46.857Z,94.30
2017-10-17T07:48:15.292Z,107.20
2017-10-17T07:50:44.553Z,116.33
2017-10-17T07:53:13.060Z,156.23
2017-10-17T07:55:41.434Z,96.60
2017-10-17T07:58:10.023Z,109.70
2017-10-17T08:00:39.430Z,91.70
2017-10-17T08:03:07.814Z,142.03
2017-10-17T08:05:37.056Z,79.17
2017-10-17T08:08:05.642Z,175.73
2017-10-17T08:10:34.098Z,121.07
2017-10-17T08:13:03.673Z,86.67
2017-10-17T08:15:33.111Z,122.50
2017-10-17T08:18:01.532Z,254.03
2017-10-17T08:20:29.945Z,100.93
2017-10-17T08:23:01.261Z,88.60
2017-10-17T08:25:30.274Z,85.27
2017-10-17T08:27:59.428Z,80.40
2017-10-17T08:30:28.459Z,185.20
2017-10-17T08:32:56.850Z,108.30
2017-10-17T08:35:26.051Z,81.90
2017-10-17T08:37:54.708Z,125.80
2017-10-17T08:40:24.065Z,73.40
2017-10-17T08:42:52.461Z,85.67
2017-10-17T08:45:21.407Z,68.93
2017-10-17T08:47:50.917Z,98.60
2017-10-17T08:50:20.142Z,77.43
2017-10-17T08:52:48.573Z,71.43
2017-10-17T08:55:17.021Z,83.03
2017-10-17T08:57:45.464Z,44.33
2017-10-17T09:00:14.697Z,39.13
2017-10-17T09:02:43.126Z,36.30
2017-10-17T09:05:12.284Z,29.10
2017-10-17T09:07:41.192Z,21.57
2017-10-17T09:10:09.633Z,24.87
2017-10-17T09:12:39.384Z,20.17
2017-10-17T09:15:07.929Z,20.80
2017-10-17T09:17:36.307Z,23.67
2017-10-17T09:20:04.784Z,17.73
2017-10-17T09:22:33.212Z,24.10
2017-10-17T09:25:02.090Z,20.23
2017-10-17T09:27:30.570Z,21.60
2017-10-17T09:29:59.372Z,20.47
2017-10-17T09:32:27.793Z,18.80
2017-10-17T09:34:56.179Z,22.30
2017-10-17T09:37:27.855Z,18.23
2017-10-17T09:39:57.479Z,17.70
2017-10-17T09:42:25.879Z,22.47
2017-10-17T09:44:55.700Z,21.33
2017-10-17T09:47:25.835Z,24.03
2017-10-17T09:49:54.995Z,18.60
2017-10-17T09:52:23.893Z,25.70
2017-10-17T09:54:52.318Z,19.77
2017-10-17T09:57:20.785Z,18.90
2017-10-17T09:59:51.099Z,17.27
2017-10-17T10:02:20.248Z,20.43
2017-10-17T10:04:50.409Z,19.43
2017-10-17T10:07:19.884Z,16.77
2017-10-17T10:09:48.294Z,16.90
2017-10-17T10:12:19.193Z,18.13
2017-10-17T10:14:49.559Z,17.90
2017-10-17T10:17:19.682Z,18.20
2017-10-17T10:19:48.125Z,13.70
2017-10-17T10:22:17.562Z,18.93
2017-10-17T10:24:46.819Z,20.07
2017-10-17T10:27:15.493Z,20.77
2017-10-17T10:29:44.872Z,12.00
2017-10-17T10:32:13.283Z,17.47
2017-10-17T10:34:41.858Z,16.57
2017-10-17T10:37:11.524Z,18.20
2017-10-17T10:39:40.711Z,17.30
2017-10-17T10:42:11.952Z,18.07
2017-10-17T10:44:41.379Z,19.10
2017-10-17T10:47:09.819Z,25.87
2017-10-17T10:49:38.762Z,22.80
2017-10-17T10:52:09.125Z,19.57
2017-10-17T10:54:37.509Z,17.23
2017-10-17T10:57:05.936Z,16.23
2017-10-17T10:59:35.365Z,22.60
2017-10-17T11:02:04.613Z,24.60
2017-10-17T11:04:33.081Z,17.57
2017-10-17T11:07:01.635Z,14.63
2017-10-17T11:09:30.090Z,22.83
2017-10-17T11:11:58.497Z,18.80
2017-10-17T11:14:27.279Z,18.87
2017-10-17T11:16:55.667Z,21.93
2017-10-17T11:19:24.104Z,16.17
2017-10-17T11:21:53.382Z,22.07
2017-10-17T11:24:22.667Z,16.20
2017-10-17T11:26:51.193Z,15.70
2017-10-17T11:29:20.636Z,17.97
2017-10-17T11:31:49.042Z,17.60
2017-10-17T11:34:18.272Z,21.00
2017-10-17T11:36:47.567Z,21.63
2017-10-17T11:39:16.369Z,20.10
2017-10-17T11:44:48.528Z,18.93
2017-10-17T11:47:18.166Z,15.97
2017-10-17T11:49:47.893Z,21.43
2017-10-17T11:52:16.263Z,18.40
2017-10-17T11:54:45.018Z,29.33
2017-10-17T11:57:14.048Z,26.73
2017-10-17T11:59:42.443Z,20.37
2017-10-17T12:02:12.019Z,27.17
2017-10-17T12:04:40.459Z,17.87
2017-10-17T12:07:10.399Z,22.40
2017-10-17T12:09:38.916Z,20.17
2017-10-17T12:12:08.177Z,21.20
2017-10-17T12:14:39.421Z,15.47
2017-10-17T12:17:09.962Z,15.50
2017-10-17T12:19:38.381Z,17.63
2017-10-17T12:22:06.918Z,23.50
2017-10-17T12:24:36.718Z,17.57
2017-10-17T12:27:05.206Z,17.43
2017-10-17T12:29:34.779Z,13.03
2017-10-17T12:32:04.428Z,17.50
2017-10-17T12:34:33.726Z,25.70
2017-10-17T12:37:03.006Z,23.57
2017-10-17T12:39:34.014Z,22.40
2017-10-17T12:42:03.542Z,26.03
2017-10-17T12:44:33.179Z,27.83
2017-10-17T12:47:02.091Z,20.70
2017-10-17T12:49:31.328Z,37.67
2017-10-17T12:52:02.703Z,20.10
2017-10-17T12:54:32.075Z,21.77
2017-10-17T12:57:00.590Z,21.53
2017-10-17T12:59:29.785Z,19.50
2017-10-17T13:02:00.288Z,19.33
2017-10-17T13:04:28.910Z,23.47
2017-10-17T13:06:58.217Z,23.40
2017-10-17T13:09:26.675Z,28.90
2017-10-17T13:11:55.900Z,24.63
2017-10-17T13:14:24.848Z,18.43
2017-10-17T13:16:53.806Z,22.33
2017-10-17T13:19:22.326Z,24.83
2017-10-17T13:21:51.921Z,21.07
2017-10-17T13:24:21.842Z,26.53
2017-10-17T13:26:51.187Z,20.57
2017-10-17T13:29:19.631Z,23.53
2017-10-17T13:31:48.341Z,25.43
2017-10-17T13:34:18.485Z,27.70
2017-10-17T13:36:49.282Z,24.07
2017-10-17T13:39:17.740Z,17.30
2017-10-17T13:41:46.411Z,21.23
2017-10-17T13:44:17.149Z,22.33
2017-10-17T13:46:45.657Z,19.40
2017-10-17T13:49:14.853Z,19.13
2017-10-17T13:51:44.550Z,17.87
2017-10-17T13:54:14.241Z,21.77
2017-10-17T13:56:42.666Z,21.03
2017-10-17T13:59:12.422Z,23.77
2017-10-17T14:01:42.203Z,24.90
2017-10-17T14:04:10.628Z,18.57
2017-10-17T14:06:39.570Z,22.47
2017-10-17T14:09:08.052Z,18.33
2017-10-17T14:11:36.691Z,19.00
2017-10-17T14:14:06.628Z,18.17
2017-10-17T14:16:35.079Z,17.13
2017-10-17T14:19:04.584Z,19.70
2017-10-17T14:21:34.074Z,21.97
2017-10-17T14:24:03.083Z,23.77
2017-10-17T14:26:31.481Z,30.57
2017-10-17T14:29:00.267Z,16.77
2017-10-17T14:31:29.035Z,24.60
2017-10-17T14:34:00.573Z,18.67
2017-10-17T14:36:29.323Z,24.13
2017-10-17T14:38:57.777Z,27.83
2017-10-17T14:41:26.195Z,19.23
2017-10-17T14:43:57.275Z,28.33
2017-10-17T14:46:26.967Z,25.20
2017-10-17T14:48:56.137Z,20.10
2017-10-17T14:51:25.414Z,19.20
2017-10-17T14:53:53.813Z,25.73
2017-10-17T14:56:23.380Z,27.80
2017-10-17T14:58:51.866Z,17.00
2017-10-17T15:01:20.302Z,25.73
2017-10-17T15:03:48.748Z,20.50
2017-10-17T15:06:18.178Z,17.43
2017-10-17T15:08:47.642Z,26.07
2017-10-17T15:11:16.033Z,18.07
2017-10-17T15:13:45.603Z,18.27
2017-10-17T15:16:14.028Z,22.33
2017-10-17T15:18:43.210Z,15.23
2017-10-17T15:21:13.866Z,20.10
2017-10-17T15:23:43.528Z,22.30
2017-10-17T15:26:11.949Z,20.67
2017-10-17T15:28:41.150Z,18.43
2017-10-17T15:31:10.283Z,20.53
2017-10-17T15:33:39.104Z,19.80
2017-10-17T15:36:07.886Z,25.47
2017-10-17T15:38:36.347Z,20.90
2017-10-17T15:41:04.834Z,26.63
2017-10-17T15:43:34.506Z,27.90
2017-10-17T15:46:04.069Z,24.17
2017-10-17T15:48:32.455Z,21.73
2017-10-17T15:51:00.915Z,24.27
2017-10-17T15:53:29.312Z,17.00
2017-10-17T15:55:58.537Z,25.43
2017-10-17T15:58:27.750Z,21.73
2017-10-17T16:00:56.191Z,22.17
2017-10-17T16:03:25.473Z,20.50
2017-10-17T16:05:53.940Z,23.17
2017-10-17T16:08:22.350Z,29.83
2017-10-17T16:10:51.019Z,18.57
2017-10-17T16:13:19.494Z,29.53
2017-10-17T16:15:48.625Z,34.17
2017-10-17T16:18:17.869Z,30.10
2017-10-17T16:20:46.602Z,41.27
2017-10-17T16:23:15.103Z,35.90
2017-10-17T16:25:44.283Z,20.37
2017-10-17T16:28:13.587Z,38.20
2017-10-17T16:30:42.758Z,22.30
2017-10-17T16:33:11.950Z,35.53
2017-10-17T16:35:40.795Z,29.53
2017-10-17T16:38:09.426Z,35.73
2017-10-17T16:40:37.847Z,41.13
2017-10-17T16:43:06.336Z,31.57
2017-10-17T16:45:34.733Z,33.13
2017-10-17T16:48:03.273Z,30.60
2017-10-17T16:50:32.565Z,26.07
2017-10-17T16:53:00.938Z,27.73
2017-10-17T16:55:29.367Z,24.97
2017-10-17T16:57:57.831Z,29.90
2017-10-17T17:00:26.573Z,31.47
2017-10-17T17:02:54.990Z,29.30
2017-10-17T17:05:23.461Z,26.20
2017-10-17T17:07:52.623Z,27.03
2017-10-17T17:10:21.015Z,30.13
2017-10-17T17:12:49.783Z,24.30
2017-10-17T17:15:18.169Z,34.30
2017-10-17T17:17:46.582Z,23.40
2017-10-17T17:20:17.806Z,36.33
2017-10-17T17:22:46.213Z,25.50
2017-10-17T17:25:16.155Z,27.20
2017-10-17T17:27:45.403Z,30.20
2017-10-17T17:30:13.872Z,32.03
2017-10-17T17:32:42.279Z,30.00
2017-10-17T17:35:11.498Z,33.43
2017-10-17T17:37:39.947Z,25.37
2017-10-17T17:40:08.706Z,32.27
2017-10-17T17:42:37.786Z,31.90
2017-10-17T17:45:06.260Z,35.83
2017-10-17T17:47:34.645Z,32.47
2017-10-17T17:50:03.389Z,36.07
2017-10-17T17:52:31.788Z,32.30
2017-10-17T17:55:00.187Z,30.53
2017-10-17T17:57:28.937Z,36.83
2017-10-17T17:59:58.086Z,32.13
2017-10-17T18:02:26.530Z,36.10
2017-10-17T18:04:54.956Z,44.23
2017-10-17T18:07:23.371Z,36.17
2017-10-17T18:09:51.755Z,37.43
2017-10-17T18:12:21.090Z,30.70
2017-10-17T18:14:49.849Z,33.07
2017-10-17T18:17:19.239Z,54.50
2017-10-17T18:19:47.916Z,34.80
2017-10-17T18:22:16.301Z,43.47
2017-10-17T18:24:45.450Z,49.40
2017-10-17T18:27:13.911Z,46.77
2017-10-17T18:29:42.279Z,35.00
2017-10-17T18:32:10.648Z,48.60
2017-10-17T18:34:40.115Z,45.77
2017-10-17T18:37:08.501Z,42.43
2017-10-17T18:39:37.431Z,46.00
2017-10-17T18:42:06.134Z,41.23
2017-10-17T18:44:34.516Z,53.00
2017-10-17T18:47:02.942Z,45.60
2017-10-17T18:49:31.348Z,39.43
2017-10-17T18:52:01.420Z,41.20
2017-10-17T18:54:29.810Z,42.00
2017-10-17T18:56:58.319Z,44.20
2017-10-17T18:59:27.510Z,49.93
2017-10-17T19:01:56.695Z,40.37
2017-10-17T19:04:25.303Z,48.80
2017-10-17T19:06:54.449Z,46.90
2017-10-17T19:09:22.803Z,45.80
2017-10-17T19:11:51.501Z,50.70
2017-10-17T19:14:19.874Z,39.80
2017-10-17T19:16:48.263Z,39.93
2017-10-17T19:19:16.744Z,38.80
2017-10-17T19:21:45.101Z,46.17
2017-10-17T19:24:13.496Z,44.53
2017-10-17T19:26:41.964Z,37.80
2017-10-17T19:29:10.615Z,38.80
2017-10-17T19:31:39.023Z,40.77
2017-10-17T19:34:08.102Z,39.77
2017-10-17T19:36:36.513Z,39.50
2017-10-17T19:39:04.996Z,42.53
2017-10-17T19:41:34.366Z,36.63
2017-10-17T19:44:04.319Z,34.97
2017-10-17T19:46:32.726Z,39.37
2017-10-17T19:49:01.446Z,47.50
2017-10-17T19:51:30.595Z,37.70
2017-10-17T19:53:59.022Z,42.20
2017-10-17T19:56:28.208Z,44.00
2017-10-17T19:58:57.335Z,35.80
2017-10-17T20:01:25.731Z,46.10
2017-10-17T20:03:54.176Z,52.20
2017-10-17T20:06:23.374Z,44.70
2017-10-17T20:08:52.532Z,42.13
2017-10-17T20:11:21.232Z,54.63
2017-10-17T20:13:49.641Z,43.20
2017-10-17T20:16:18.013Z,38.00
2017-10-17T20:18:47.355Z,52.83
2017-10-17T20:21:15.768Z,53.90
2017-10-17T20:23:44.173Z,46.33
2017-10-17T20:26:13.363Z,39.07
2017-10-17T20:28:42.549Z,46.33
2017-10-17T20:31:11.826Z,50.20
2017-10-17T20:33:40.345Z,58.33
2017-10-17T20:36:08.762Z,50.10
2017-10-17T20:38:37.170Z,52.83
2017-10-17T20:41:05.672Z,44.70
2017-10-17T20:43:34.122Z,66.13
2017-10-17T20:46:02.778Z,46.13
2017-10-17T20:48:31.252Z,54.53
2017-10-17T20:50:59.618Z,55.33
2017-10-17T20:53:28.028Z,43.30
2017-10-17T20:55:56.803Z,45.07
2017-10-17T20:58:25.168Z,43.00
2017-10-17T21:00:53.531Z,45.87
2017-10-17T21:03:22.705Z,47.50
2017-10-17T21:05:51.128Z,48.27
2017-10-17T21:08:19.850Z,40.43
2017-10-17T21:10:48.277Z,45.50
2017-10-17T21:13:17.412Z,49.77
2017-10-17T21:15:45.816Z,41.53
2017-10-17T21:18:14.619Z,41.30
2017-10-17T21:20:43.019Z,45.30
2017-10-17T21:23:12.178Z,47.07
2017-10-17T21:25:40.700Z,43.13
2017-10-17T21:28:09.836Z,39.43
2017-10-17T21:30:38.244Z,41.33
2017-10-17T21:33:06.768Z,46.17
2017-10-17T21:35:35.154Z,42.83
2017-10-17T21:38:03.521Z,49.87
2017-10-17T21:40:31.965Z,44.77
2017-10-17T21:43:00.364Z,47.60
2017-10-17T21:45:29.656Z,46.87
2017-10-17T21:47:58.144Z,50.63
2017-10-17T21:50:27.350Z,49.20
2017-10-17T21:52:56.487Z,37.30
2017-10-17T21:55:25.092Z,42.17
2017-10-17T21:57:53.538Z,45.20
2017-10-17T22:00:33.901Z,44.20
2017-10-17T22:03:02.262Z,49.33
2017-10-17T22:05:30.731Z,41.03
2017-10-17T22:08:00.043Z,52.53
2017-10-17T22:10:28.423Z,49.03
2017-10-17T22:12:56.784Z,50.33
2017-10-17T22:15:26.183Z,57.70
2017-10-17T22:17:55.351Z,51.10
2017-10-17T22:20:24.838Z,45.47
2017-10-17T22:22:53.269Z,45.90
2017-10-17T22:25:21.639Z,48.40
2017-10-17T22:27:50.783Z,49.10
2017-10-17T22:30:19.258Z,63.50
2017-10-17T22:32:47.620Z,48.70
2017-10-17T22:35:16.035Z,51.83
2017-10-17T22:37:44.631Z,54.80
2017-10-17T22:40:13.015Z,49.77
2017-10-17T22:42:41.386Z,45.60
2017-10-17T22:45:09.896Z,50.43
2017-10-17T22:47:39.056Z,50.60
2017-10-17T22:50:07.534Z,50.17
2017-10-17T22:52:36.048Z,44.27
2017-10-17T22:55:04.429Z,46.83
2017-10-17T22:57:32.807Z,48.47
2017-10-17T23:00:01.304Z,52.37
2017-10-17T23:02:30.470Z,50.03
2017-10-17T23:04:58.850Z,53.17
2017-10-17T23:07:27.254Z,54.53
2017-10-17T23:09:56.625Z,72.67
2017-10-17T23:12:25.025Z,65.00
2017-10-17T23:14:53.494Z,79.30
2017-10-17T23:17:33.798Z,65.23
2017-10-17T23:20:14.962Z,75.77
2017-10-17T23:22:44.097Z,97.23
2017-10-17T23:25:12.471Z,86.17
2017-10-17T23:27:41.690Z,120.20
2017-10-17T23:30:10.381Z,134.97
2017-10-17T23:32:38.770Z,100.63
2017-10-17T23:35:07.369Z,436.23
2017-10-17T23:37:36.495Z,323.03
2017-10-17T23:40:04.889Z,170.97
2017-10-17T23:42:33.451Z,132.83
2017-10-17T23:45:01.814Z,464.63
2017-10-17T23:47:30.946Z,243.97
2017-10-17T23:49:59.662Z,200.27
2017-10-17T23:52:28.230Z,330.53
2017-10-17T23:54:56.590Z,153.67
2017-10-17T23:57:26.136Z,323.10
2017-10-17T23:59:54.510Z,164.63
